sensor_id;sensor_type;location;lat;lon;timestamp;temperature;humidity
20162;DHT22;51382;53.180;15.414;2023-03-23T00:04:38;10.00;99.90
20162;DHT22;51382;53.180;15.414;2023-03-23T00:19:44;10.00;99.90
20162;DHT22;51382;53.180;15.414;2023-03-23T00:34:50;9.90;99.90
20162;DHT22;51382;53.180;15.414;2023-03-23T00:49:55;10.00;99.90
20162;DHT22;51382;53.180;15.414;2023-03-23T01:05:00;9.90;99.90
20162;DHT22;51382;53.180;15.414;2023-03-23T01:20:07;9.60;99.90
20162;DHT22;51382;53.180;15.414;2023-03-23T01:35:13;9.50;99.90
20162;DHT22;51382;53.180;15.414;2023-03-23T01:50:19;9.00;99.90
20162;DHT22;51382;53.180;15.414;2023-03-23T02:05:28;9.40;99.90
20162;DHT22;51382;53.180;15.414;2023-03-23T02:20:52;9.40;99.90
20162;DHT22;51382;53.180;15.414;2023-03-23T02:36:17;9.40;99.90
20162;DHT22;51382;53.180;15.414;2023-03-23T02:51:29;9.90;99.90
20162;DHT22;51382;53.180;15.414;2023-03-23T03:06:36;9.70;99.90
20162;DHT22;51382;53.180;15.414;2023-03-23T03:21:50;9.90;99.90
20162;DHT22;51382;53.180;15.414;2023-03-23T03:37:07;9.50;99.90
20162;DHT22;51382;53.180;15.414;2023-03-23T03:52:14;9.70;99.90
20162;DHT22;51382;53.180;15.414;2023-03-23T04:07:19;9.80;99.90
20162;DHT22;51382;53.180;15.414;2023-03-23T04:22:28;9.80;99.90
20162;DHT22;51382;53.180;15.414;2023-03-23T04:37:34;9.90;99.90
20162;DHT22;51382;53.180;15.414;2023-03-23T04:52:41;9.10;99.90
20162;DHT22;51382;53.180;15.414;2023-03-23T05:07:49;9.90;99.90
20162;DHT22;51382;53.180;15.414;2023-03-23T05:22:56;10.00;99.90
20162;DHT22;51382;53.180;15.414;2023-03-23T05:38:06;10.10;99.90
20162;DHT22;51382;53.180;15.414;2023-03-23T05:53:12;10.10;99.90
20162;DHT22;51382;53.180;15.414;2023-03-23T06:08:20;10.00;99.90
20162;DHT22;51382;53.180;15.414;2023-03-23T06:23:26;9.40;99.90
20162;DHT22;51382;53.180;15.414;2023-03-23T06:38:32;9.50;99.90
20162;DHT22;51382;53.180;15.414;2023-03-23T06:53:38;9.50;99.90
20162;DHT22;51382;53.180;15.414;2023-03-23T07:08:47;9.90;99.90
20162;DHT22;51382;53.180;15.414;2023-03-23T07:23:55;10.80;99.90
20162;DHT22;51382;53.180;15.414;2023-03-23T07:39:18;10.70;99.90
20162;DHT22;51382;53.180;15.414;2023-03-23T07:54:29;10.60;99.90
20162;DHT22;51382;53.180;15.414;2023-03-23T08:09:52;10.90;99.90
20162;DHT22;51382;53.180;15.414;2023-03-23T08:25:16;11.10;99.90
20162;DHT22;51382;53.180;15.414;2023-03-23T08:40:40;11.00;99.90
20162;DHT22;51382;53.180;15.414;2023-03-23T08:55:51;11.10;99.90
20162;DHT22;51382;53.180;15.414;2023-03-23T09:11:19;11.90;99.90
20162;DHT22;51382;53.180;15.414;2023-03-23T09:26:24;11.80;99.90
20162;DHT22;51382;53.180;15.414;2023-03-23T09:41:36;11.50;99.90
20162;DHT22;51382;53.180;15.414;2023-03-23T09:57:19;11.80;99.90
20162;DHT22;51382;53.180;15.414;2023-03-23T10:12:33;11.80;99.90
20162;DHT22;51382;53.180;15.414;2023-03-23T10:27:48;12.80;99.90
20162;DHT22;51382;53.180;15.414;2023-03-23T10:42:58;12.40;99.90
20162;DHT22;51382;53.180;15.414;2023-03-23T10:58:04;12.60;99.90
20162;DHT22;51382;53.180;15.414;2023-03-23T11:13:14;12.80;99.90
20162;DHT22;51382;53.180;15.414;2023-03-23T11:28:21;13.40;99.90
20162;DHT22;51382;53.180;15.414;2023-03-23T11:43:29;14.00;99.90
20162;DHT22;51382;53.180;15.414;2023-03-23T11:58:37;14.50;99.90
20162;DHT22;51382;53.180;15.414;2023-03-23T12:13:56;14.80;99.90
20162;DHT22;51382;53.180;15.414;2023-03-23T12:29:15;14.60;99.90
20162;DHT22;51382;53.180;15.414;2023-03-23T12:44:41;14.80;99.90
20162;DHT22;51382;53.180;15.414;2023-03-23T12:59:50;14.80;99.90
20162;DHT22;51382;53.180;15.414;2023-03-23T13:15:04;14.90;99.90
20162;DHT22;51382;53.180;15.414;2023-03-23T13:30:20;14.80;99.90
20162;DHT22;51382;53.180;15.414;2023-03-23T13:45:36;15.00;99.90
20162;DHT22;51382;53.180;15.414;2023-03-23T14:01:01;15.50;99.90
20162;DHT22;51382;53.180;15.414;2023-03-23T14:16:19;15.60;99.90
20162;DHT22;51382;53.180;15.414;2023-03-23T14:31:26;15.40;99.90
20162;DHT22;51382;53.180;15.414;2023-03-23T14:46:33;15.30;99.90
20162;DHT22;51382;53.180;15.414;2023-03-23T15:01:39;15.40;99.90
20162;DHT22;51382;53.180;15.414;2023-03-23T15:16:50;15.10;99.90
20162;DHT22;51382;53.180;15.414;2023-03-23T15:31:57;15.10;99.90
20162;DHT22;51382;53.180;15.414;2023-03-23T15:47:13;14.80;99.90
20162;DHT22;51382;53.180;15.414;2023-03-23T16:02:21;10.00;99.90
20162;DHT22;51382;53.180;15.414;2023-03-23T16:17:34;9.90;99.90
20162;DHT22;51382;53.180;15.414;2023-03-23T16:32:40;10.10;99.90
20162;DHT22;51382;53.180;15.414;2023-03-23T16:47:52;10.30;99.90
20162;DHT22;51382;53.180;15.414;2023-03-23T17:03:05;10.30;99.90
20162;DHT22;51382;53.180;15.414;2023-03-23T17:18:16;10.30;99.90
20162;DHT22;51382;53.180;15.414;2023-03-23T17:33:22;10.30;99.90
20162;DHT22;51382;53.180;15.414;2023-03-23T17:48:34;10.20;99.90
20162;DHT22;51382;53.180;15.414;2023-03-23T18:03:45;10.50;99.90
20162;DHT22;51382;53.180;15.414;2023-03-23T18:18:56;10.30;99.90
20162;DHT22;51382;53.180;15.414;2023-03-23T18:34:08;10.00;99.90
20162;DHT22;51382;53.180;15.414;2023-03-23T18:49:19;10.20;99.90
20162;DHT22;51382;53.180;15.414;2023-03-23T19:04:31;10.10;99.90
20162;DHT22;51382;53.180;15.414;2023-03-23T19:19:42;10.20;99.90
20162;DHT22;51382;53.180;15.414;2023-03-23T19:34:48;10.30;99.90
20162;DHT22;51382;53.180;15.414;2023-03-23T19:49:54;10.20;99.90
20162;DHT22;51382;53.180;15.414;2023-03-23T20:05:07;10.30;99.90
20162;DHT22;51382;53.180;15.414;2023-03-23T20:20:20;10.20;99.90
20162;DHT22;51382;53.180;15.414;2023-03-23T20:35:32;10.10;99.90
20162;DHT22;51382;53.180;15.414;2023-03-23T20:50:43;10.20;99.90
20162;DHT22;51382;53.180;15.414;2023-03-23T21:05:51;10.00;99.90
20162;DHT22;51382;53.180;15.414;2023-03-23T21:20:58;9.50;99.90
20162;DHT22;51382;53.180;15.414;2023-03-23T21:36:12;8.90;99.90
20162;DHT22;51382;53.180;15.414;2023-03-23T21:51:24;8.80;99.90
20162;DHT22;51382;53.180;15.414;2023-03-23T22:06:37;8.70;99.90
20162;DHT22;51382;53.180;15.414;2023-03-23T22:21:49;8.60;99.90
20162;DHT22;51382;53.180;15.414;2023-03-23T22:37:00;8.60;99.90
20162;DHT22;51382;53.180;15.414;2023-03-23T22:52:12;8.60;99.90
20162;DHT22;51382;53.180;15.414;2023-03-23T23:07:19;8.50;99.90
20162;DHT22;51382;53.180;15.414;2023-03-23T23:22:32;8.60;99.90
20162;DHT22;51382;53.180;15.414;2023-03-23T23:37:43;10.70;99.90
20162;DHT22;51382;53.180;15.414;2023-03-23T23:52:54;8.40;99.90
